Advance Mills, Virginia
Current Conditions -  °F | °C
As of 4:53 PM on Wednesday 22 Oct 2014 (Local Time) from KCHO Reporting Station
Overcast Overcast  
Wind Chill: 56°   Ceiling: 6000
Heat Index: 56°   Visibility: 10mi
Dew Point: 44°   Wind: 14mph
Humidity: 64%   Direction: 340°NNW
Pressure: 29.99"   Gusts: 29mph
Location:  38.2469°N, 78.3926°W
Report Text: KCHO 222053Z 34012G25KT 10SM FEW032 BKN060 OVC090 13/07 A2999 RMK AO2 RAE1956 SLP153 P0000 60000 T01330067 51004
Loading
Personal Weather Stations






























Interactive Weather Map
Tropical Storm Tracking
New forecast layout! Learn more

10-Day Weather Forecast

Advertisements
Track Severe Weather on mobile